Time;durP1;ratioP1;P1;durP2;ratioP2;P2;SDS_P1;SDS_P2;PMS_P1;PMS_P2;Temp;Humidity;BMP_temperature;BMP_pressure;BME280_temperature;BME280_humidity;BME280_pressure;Samples;Min_cycle;Max_cycle;Signal;HPM_P1;HPM_P2
2023/10/26 21:44:52;;;;;;;0.32;0.32;;;;;;;;;;7396998;19;20306;-90
2023/10/26 21:47:19;;;;;;;0.40;0.40;;;;;;;;;;7392003;19;20357;-90
2023/10/26 21:49:45;;;;;;;0.40;0.40;;;;;;;;;;7390984;19;20361;-90
2023/10/26 21:52:12;;;;;;;0.70;0.70;;;;;;;;;;7389953;19;20412;-90
2023/10/26 21:54:40;;;;;;;0.30;0.30;;;;;;;;;;7387293;19;20360;-90
2023/10/26 22:00:44;;;;;;;0.40;0.40;;;;;;;;;;7400096;19;20327;-93
2023/10/26 22:03:11;;;;;;;0.30;0.30;;;;;;;;;;7391417;19;20428;-94
2023/10/26 22:05:38;;;;;;;0.32;0.32;;;;;;;;;;7389087;19;20357;-94
2023/10/26 22:08:05;;;;;;;0.30;0.30;;;;;;;;;;7389060;19;20356;-93
2023/10/26 22:10:32;;;;;;;0.20;0.20;;;;;;;;;;7391012;19;20344;-93
2023/10/26 22:12:58;;;;;;;0.30;0.30;;;;;;;;;;7391084;19;20715;-95
2023/10/26 22:15:25;;;;;;;0.20;0.20;;;;;;;;;;7388641;19;20353;-93
2023/10/26 22:17:52;;;;;;;0.60;0.60;;;;;;;;;;7390969;19;20328;-93
2023/10/26 22:20:19;;;;;;;0.40;0.40;;;;;;;;;;7385767;19;20359;-89
2023/10/26 22:22:45;;;;;;;0.60;0.47;;;;;;;;;;7383785;19;20329;-92
2023/10/26 22:25:12;;;;;;;0.35;0.35;;;;;;;;;;7388048;19;20415;-92
2023/10/26 22:27:40;;;;;;;0.30;0.30;;;;;;;;;;7387322;19;20452;-91
2023/10/26 22:30:07;;;;;;;1.05;0.63;;;;;;;;;;7389205;19;21263;-91
2023/10/26 22:32:34;;;;;;;0.90;0.70;;;;;;;;;;7387452;19;20332;-91
2023/10/26 22:35:00;;;;;;;0.40;0.40;;;;;;;;;;7388898;19;20344;-90
2023/10/26 22:37:27;;;;;;;0.57;0.50;;;;;;;;;;7389944;19;20780;-91
2023/10/26 22:39:54;;;;;;;0.30;0.30;;;;;;;;;;7387857;19;20364;-91
2023/10/26 22:42:21;;;;;;;0.30;0.30;;;;;;;;;;7389999;19;20891;-92
2023/10/26 22:44:49;;;;;;;0.30;0.30;;;;;;;;;;7386321;19;20436;-90
2023/10/26 22:47:15;;;;;;;0.38;0.38;;;;;;;;;;7386003;19;20935;-90
2023/10/26 22:49:43;;;;;;;0.40;0.40;;;;;;;;;;7386876;19;20368;-90
2023/10/26 22:52:10;;;;;;;0.82;0.82;;;;;;;;;;7385018;19;20888;-90
2023/10/26 22:54:36;;;;;;;0.30;0.30;;;;;;;;;;7387465;19;20372;-90
2023/10/26 22:57:03;;;;;;;0.35;0.35;;;;;;;;;;7388063;19;20364;-89
2023/10/26 22:59:30;;;;;;;0.37;0.37;;;;;;;;;;7387751;19;20433;-90
2023/10/26 23:01:57;;;;;;;0.30;0.30;;;;;;;;;;7386493;19;20420;-90
2023/10/26 23:04:24;;;;;;;0.80;0.80;;;;;;;;;;7386649;19;20349;-92
2023/10/26 23:06:51;;;;;;;0.30;0.30;;;;;;;;;;7387338;19;20348;-91
2023/10/26 23:09:18;;;;;;;0.30;0.30;;;;;;;;;;7385316;19;20340;-91
2023/10/26 23:11:45;;;;;;;0.30;0.30;;;;;;;;;;7388206;19;20352;-91
2023/10/26 23:14:12;;;;;;;0.40;0.40;;;;;;;;;;7389158;19;20368;-91
2023/10/26 23:16:39;;;;;;;1.10;0.70;;;;;;;;;;7391721;19;20352;-88
2023/10/26 23:19:06;;;;;;;0.60;0.60;;;;;;;;;;7391454;19;20344;-89
2023/10/26 23:21:33;;;;;;;0.25;0.25;;;;;;;;;;7391927;19;20844;-90
2023/10/26 23:24:03;;;;;;;0.47;0.47;;;;;;;;;;7391246;19;20360;-89
2023/10/26 23:26:30;;;;;;;0.32;0.32;;;;;;;;;;7389104;19;20420;-89
2023/10/26 23:29:03;;;;;;;0.35;0.35;;;;;;;;;;7391241;19;20349;-90
2023/10/26 23:31:29;;;;;;;0.20;0.20;;;;;;;;;;7390584;19;20360;-90
2023/10/26 23:33:57;;;;;;;0.38;0.38;;;;;;;;;;7389143;19;20400;-89
2023/10/26 23:36:24;;;;;;;0.30;0.30;;;;;;;;;;7389195;19;20353;-90
2023/10/26 23:38:51;;;;;;;0.30;0.30;;;;;;;;;;7387778;19;20340;-90
2023/10/26 23:41:18;;;;;;;0.30;0.30;;;;;;;;;;7389189;19;20344;-91
2023/10/26 23:43:44;;;;;;;0.30;0.30;;;;;;;;;;7387996;19;20887;-90
2023/10/26 23:46:11;;;;;;;0.50;0.50;;;;;;;;;;7391819;19;20882;-90
2023/10/26 23:48:41;;;;;;;0.20;0.20;;;;;;;;;;7389879;19;20367;-90
2023/10/26 23:51:08;;;;;;;0.40;0.40;;;;;;;;;;7382849;19;20344;-89
2023/10/26 23:53:35;;;;;;;0.30;0.30;;;;;;;;;;7391559;19;20625;-90
2023/10/26 23:56:02;;;;;;;0.40;0.40;;;;;;;;;;7391281;19;20708;-90
2023/10/26 23:58:28;;;;;;;0.40;0.40;;;;;;;;;;7388571;19;20348;-91
